Time;durP1;ratioP1;P1;durP2;ratioP2;P2;SDS_P1;SDS_P2;PMS_P1;PMS_P2;Temp;Humidity;BMP_temperature;BMP_pressure;BME280_temperature;BME280_humidity;BME280_pressure;Samples;Min_cycle;Max_cycle;Signal;HPM_P1;HPM_P2
2023/08/11 00:01:43;;;;;;;8.05;4.80;;;17.20;99.90;;;;;;4957977;29;20074;-92
2023/08/11 00:04:10;;;;;;;8.50;4.50;;;17.20;99.90;;;;;;4958356;29;20074;-90
2023/08/11 00:06:37;;;;;;;9.32;4.30;;;17.20;99.90;;;;;;4956523;29;20059;-92
2023/08/11 00:09:07;;;;;;;7.03;4.43;;;17.30;99.90;;;;;;4957712;29;20043;-92
2023/08/11 00:11:34;;;;;;;5.82;3.83;;;17.20;99.90;;;;;;4957934;29;20109;-91
2023/08/11 00:14:02;;;;;;;6.43;4.15;;;17.20;99.90;;;;;;4942372;29;20130;-92
2023/08/11 00:16:28;;;;;;;8.65;4.40;;;17.20;99.90;;;;;;4943980;29;20046;-90
2023/08/11 00:18:55;;;;;;;6.70;4.45;;;17.20;99.90;;;;;;4923128;29;20040;-90
2023/08/11 00:21:23;;;;;;;7.82;4.63;;;17.20;99.90;;;;;;4923415;29;20044;-90
2023/08/11 00:23:50;;;;;;;8.93;4.53;;;17.20;99.90;;;;;;4922973;29;20433;-90
2023/08/11 00:26:17;;;;;;;7.85;4.70;;;17.20;99.90;;;;;;4923275;29;20054;-90
2023/08/11 00:28:44;;;;;;;7.07;4.68;;;17.20;99.90;;;;;;4922692;29;20039;-89
2023/08/11 00:31:13;;;;;;;8.32;4.93;;;17.20;99.90;;;;;;4923215;29;20043;-90
2023/08/11 00:33:41;;;;;;;7.25;4.68;;;17.20;99.90;;;;;;4923367;29;20044;-92
2023/08/11 00:36:09;;;;;;;5.50;3.75;;;17.20;99.90;;;;;;4923122;29;20055;-91
2023/08/11 00:38:40;;;;;;;8.60;4.82;;;17.20;99.90;;;;;;4938829;29;20496;-91
2023/08/11 00:41:07;;;;;;;8.07;4.70;;;17.20;99.90;;;;;;4922565;29;20155;-92
2023/08/11 00:43:34;;;;;;;8.18;4.45;;;17.20;99.90;;;;;;4922934;29;20047;-92
2023/08/11 00:46:10;;;;;;;8.38;4.53;;;17.20;99.90;;;;;;4938453;29;20393;-92
2023/08/11 00:48:43;;;;;;;6.97;4.57;;;17.20;99.90;;;;;;4938806;29;20828;-92
2023/08/11 00:51:13;;;;;;;9.57;5.40;;;17.20;99.90;;;;;;4937627;29;20048;-92
2023/08/11 00:53:40;;;;;;;8.48;4.07;;;17.20;99.90;;;;;;4938325;29;20040;-91
2023/08/11 00:56:08;;;;;;;7.85;4.35;;;17.10;99.90;;;;;;4922523;29;20055;-91
2023/08/11 00:58:35;;;;;;;6.80;4.15;;;17.10;99.90;;;;;;4922362;29;20130;-91
2023/08/11 01:01:04;;;;;;;7.25;4.40;;;17.10;99.90;;;;;;4922565;29;20124;-92
2023/08/11 01:03:31;;;;;;;6.20;4.38;;;17.10;99.90;;;;;;4918938;29;20764;-92
2023/08/11 01:06:18;;;;;;;8.40;4.93;;;17.00;99.90;;;;;;4922539;29;20035;-91
2023/08/11 01:08:51;;;;;;;8.30;5.00;;;16.90;99.90;;;;;;4938124;29;20125;-92
2023/08/11 01:11:49;;;;;;;9.15;4.80;;;16.90;99.90;;;;;;4937800;29;20571;-91
2023/08/11 01:14:24;;;;;;;12.85;5.13;;;16.80;99.90;;;;;;4936615;29;20107;-91
2023/08/11 01:16:53;;;;;;;7.93;4.75;;;16.70;99.90;;;;;;4937825;29;20103;-90
2023/08/11 01:19:32;;;;;;;8.57;4.82;;;16.60;99.90;;;;;;4922361;29;20047;-92
2023/08/11 01:22:01;;;;;;;8.30;5.07;;;16.50;99.90;;;;;;4921847;29;20050;-92
2023/08/11 01:24:29;;;;;;;9.35;5.60;;;16.40;99.90;;;;;;4937604;29;20044;-92
2023/08/11 01:26:57;;;;;;;10.20;5.05;;;16.40;99.90;;;;;;4937695;29;20087;-92
2023/08/11 01:29:25;;;;;;;9.40;4.97;;;16.30;99.90;;;;;;4922568;29;20043;-92
2023/08/11 01:31:52;;;;;;;8.80;4.93;;;16.20;99.90;;;;;;4922244;29;20043;-91
2023/08/11 01:34:19;;;;;;;8.48;4.65;;;16.10;99.90;;;;;;4937688;29;20051;-92
2023/08/11 01:36:46;;;;;;;9.75;5.25;;;16.10;99.90;;;;;;4922675;29;20047;-92
2023/08/11 01:39:13;;;;;;;8.85;5.35;;;16.00;99.90;;;;;;4921849;29;20052;-92
2023/08/11 01:41:48;;;;;;;8.32;5.40;;;15.90;99.90;;;;;;4923652;29;20424;-91
2023/08/11 01:44:15;;;;;;;7.90;5.47;;;15.90;99.90;;;;;;4921823;29;20612;-92
2023/08/11 01:46:42;;;;;;;10.38;5.63;;;15.80;99.90;;;;;;4921655;29;20045;-92
2023/08/11 01:49:12;;;;;;;8.73;5.72;;;15.80;99.90;;;;;;4937084;29;20040;-92
2023/08/11 01:51:40;;;;;;;10.25;6.13;;;15.80;99.90;;;;;;4937172;29;20131;-92
2023/08/11 01:54:08;;;;;;;9.02;6.13;;;15.70;99.90;;;;;;4921529;29;20489;-92
2023/08/11 01:56:39;;;;;;;8.10;6.10;;;15.70;99.90;;;;;;4921641;29;20051;-92
2023/08/11 01:59:15;;;;;;;7.95;5.63;;;15.60;99.90;;;;;;4937186;29;20054;-92
2023/08/11 02:01:42;;;;;;;9.35;6.53;;;15.50;99.90;;;;;;4921648;29;20385;-91
2023/08/11 02:04:09;;;;;;;10.90;5.97;;;15.50;99.90;;;;;;4937762;29;20106;-92
2023/08/11 02:06:40;;;;;;;9.10;6.20;;;15.40;99.90;;;;;;4953607;29;20046;-91
2023/08/11 02:09:09;;;;;;;10.85;5.85;;;15.40;99.90;;;;;;4921669;29;20071;-92
2023/08/11 02:11:37;;;;;;;9.38;6.30;;;15.40;99.90;;;;;;4922685;29;20493;-91
2023/08/11 02:14:05;;;;;;;10.18;5.95;;;15.40;99.90;;;;;;4922054;29;20046;-92
2023/08/11 02:16:32;;;;;;;8.75;6.15;;;15.30;99.90;;;;;;4922366;29;20396;-91
2023/08/11 02:18:59;;;;;;;10.20;6.10;;;15.30;99.90;;;;;;4937126;29;20051;-91
2023/08/11 02:21:27;;;;;;;9.82;6.30;;;15.30;99.90;;;;;;4921667;29;20039;-91
2023/08/11 02:23:54;;;;;;;11.60;6.45;;;15.20;99.90;;;;;;4922216;29;20183;-90
2023/08/11 02:26:24;;;;;;;11.32;6.15;;;15.20;99.90;;;;;;4922157;29;20499;-91
2023/08/11 02:28:52;;;;;;;9.63;5.90;;;15.20;99.90;;;;;;4921836;29;20044;-91
2023/08/11 02:31:18;;;;;;;10.27;6.00;;;15.10;99.90;;;;;;4924072;29;20047;-91
2023/08/11 02:33:49;;;;;;;8.63;6.13;;;15.10;99.90;;;;;;4925204;29;20043;-92
2023/08/11 02:36:15;;;;;;;11.75;6.63;;;15.10;99.90;;;;;;4925156;29;20110;-92
2023/08/11 02:38:42;;;;;;;10.75;6.95;;;15.10;99.90;;;;;;4925076;29;20131;-92
2023/08/11 02:41:09;;;;;;;10.65;7.25;;;15.00;99.90;;;;;;4924516;29;20130;-92
2023/08/11 02:43:36;;;;;;;9.80;7.00;;;15.00;99.90;;;;;;4940844;29;20036;-92
2023/08/11 02:46:07;;;;;;;11.50;7.95;;;15.10;99.90;;;;;;4924626;29;20043;-90
2023/08/11 02:48:34;;;;;;;11.00;7.45;;;15.00;99.90;;;;;;4925507;29;20099;-92
2023/08/11 02:51:03;;;;;;;11.60;8.55;;;14.90;99.90;;;;;;4925282;29;20134;-92
2023/08/11 02:53:31;;;;;;;12.43;8.27;;;14.90;99.90;;;;;;4924687;29;20044;-91
2023/08/11 02:56:06;;;;;;;12.23;8.65;;;14.90;99.90;;;;;;4925590;29;20078;-92
2023/08/11 02:58:33;;;;;;;10.50;7.85;;;14.90;99.90;;;;;;4940505;29;20051;-92
2023/08/11 03:01:00;;;;;;;14.70;8.88;;;14.90;99.90;;;;;;4924346;29;20780;-91
2023/08/11 03:03:27;;;;;;;12.90;9.18;;;14.90;99.90;;;;;;4924045;29;20102;-92
2023/08/11 03:05:55;;;;;;;14.32;9.23;;;14.80;99.90;;;;;;4924549;29;20078;-92
2023/08/11 03:08:22;;;;;;;13.20;9.15;;;14.80;99.90;;;;;;4924046;29;20568;-90
2023/08/11 03:10:49;;;;;;;15.48;9.60;;;14.80;99.90;;;;;;4924151;29;20090;-91
2023/08/11 03:13:16;;;;;;;12.68;8.63;;;14.80;99.90;;;;;;4924105;29;20488;-91
2023/08/11 03:15:46;;;;;;;13.05;9.45;;;14.80;99.90;;;;;;4940085;29;20069;-90
2023/08/11 03:18:16;;;;;;;16.33;10.45;;;14.70;99.90;;;;;;4940167;29;20044;-91
2023/08/11 03:20:42;;;;;;;13.77;9.60;;;14.70;99.90;;;;;;4924054;29;20046;-91
2023/08/11 03:23:13;;;;;;;13.60;10.20;;;14.70;99.90;;;;;;4924479;29;20115;-90
2023/08/11 03:25:47;;;;;;;12.73;9.88;;;14.70;99.90;;;;;;4926676;29;20442;-92
2023/08/11 03:28:14;;;;;;;13.40;9.43;;;14.70;99.90;;;;;;4924157;29;20042;-92
2023/08/11 03:30:41;;;;;;;14.98;9.68;;;14.70;99.90;;;;;;4924518;29;20130;-91
2023/08/11 03:33:08;;;;;;;14.32;9.75;;;14.70;99.90;;;;;;4924162;29;20040;-91
2023/08/11 03:35:35;;;;;;;15.98;9.65;;;14.70;99.90;;;;;;4924143;29;20051;-91
2023/08/11 03:38:02;;;;;;;18.23;9.75;;;14.70;99.90;;;;;;4924448;29;20500;-91
2023/08/11 03:40:31;;;;;;;14.57;9.98;;;14.60;99.90;;;;;;4923783;29;20484;-91
2023/08/11 03:42:57;;;;;;;12.80;9.88;;;14.60;99.90;;;;;;4939642;29;20071;-92
2023/08/11 03:45:24;;;;;;;14.38;10.75;;;14.60;99.90;;;;;;4923588;29;20132;-91
2023/08/11 03:47:51;;;;;;;14.02;10.32;;;14.60;99.90;;;;;;4923713;29;20044;-91
2023/08/11 03:50:18;;;;;;;16.95;10.65;;;14.60;99.90;;;;;;4938928;29;20046;-92
2023/08/11 03:52:48;;;;;;;14.65;10.70;;;14.70;99.90;;;;;;4923444;29;20048;-92
2023/08/11 03:55:18;;;;;;;13.80;9.80;;;14.60;99.90;;;;;;4939016;29;20094;-91
2023/08/11 03:57:48;;;;;;;12.93;9.75;;;14.60;99.90;;;;;;4938878;29;20514;-91
2023/08/11 04:00:15;;;;;;;12.30;9.32;;;14.60;99.90;;;;;;4922991;29;20043;-90
2023/08/11 04:02:48;;;;;;;15.13;10.02;;;14.70;99.90;;;;;;4924340;29;20051;-92
2023/08/11 04:05:16;;;;;;;18.83;10.02;;;14.70;99.90;;;;;;4938928;29;20130;-91
2023/08/11 04:07:46;;;;;;;12.40;8.68;;;14.60;99.90;;;;;;4923520;29;20144;-91
2023/08/11 04:10:15;;;;;;;14.55;9.82;;;14.60;99.90;;;;;;4923990;29;20048;-91
2023/08/11 04:12:41;;;;;;;13.90;9.25;;;14.60;99.90;;;;;;4924058;29;20045;-91
2023/08/11 04:15:09;;;;;;;13.32;9.57;;;14.60;99.90;;;;;;4923531;29;20044;-91
2023/08/11 04:17:36;;;;;;;12.85;9.25;;;14.60;99.90;;;;;;4938383;29;20051;-91
2023/08/11 04:20:13;;;;;;;13.93;9.13;;;14.60;99.90;;;;;;4939098;29;20054;-91
2023/08/11 04:22:41;;;;;;;13.63;9.27;;;14.60;99.90;;;;;;4924361;29;20126;-92
2023/08/11 04:25:11;;;;;;;13.32;9.73;;;14.60;99.90;;;;;;4954406;29;20066;-92
2023/08/11 04:27:41;;;;;;;14.15;9.07;;;14.60;99.90;;;;;;4923403;29;20103;-91
2023/08/11 04:30:10;;;;;;;13.63;9.30;;;14.60;99.90;;;;;;4938719;29;20047;-92
2023/08/11 04:32:37;;;;;;;12.18;8.80;;;14.60;99.90;;;;;;4954005;29;20055;-91
2023/08/11 04:35:08;;;;;;;12.85;8.68;;;14.60;99.90;;;;;;4923030;29;20051;-91
2023/08/11 04:37:35;;;;;;;13.82;8.95;;;14.60;99.90;;;;;;4923210;29;20047;-91
2023/08/11 04:40:13;;;;;;;15.07;9.48;;;14.60;99.90;;;;;;4923159;29;20198;-91
2023/08/11 04:42:40;;;;;;;14.23;9.10;;;14.30;99.90;;;;;;4924418;29;20044;-92
2023/08/11 04:45:08;;;;;;;13.60;8.85;;;14.70;99.90;;;;;;4923041;29;20047;-91
2023/08/11 04:47:36;;;;;;;17.48;9.55;;;14.70;99.90;;;;;;4922712;29;20036;-91
2023/08/11 04:50:03;;;;;;;13.25;9.55;;;14.70;99.90;;;;;;4922776;29;20050;-91
2023/08/11 04:52:30;;;;;;;13.73;9.18;;;14.70;99.90;;;;;;4922262;29;20106;-92
2023/08/11 04:54:57;;;;;;;15.45;8.98;;;14.80;99.90;;;;;;4938183;29;20134;-92
2023/08/11 04:57:24;;;;;;;12.32;8.82;;;14.80;99.90;;;;;;4937965;29;20043;-91
2023/08/11 04:59:52;;;;;;;13.05;8.52;;;14.80;99.90;;;;;;4922288;29;20040;-90
2023/08/11 05:02:19;;;;;;;13.13;8.63;;;14.80;99.90;;;;;;4922883;29;20052;-91
2023/08/11 05:04:48;;;;;;;17.67;9.02;;;14.90;99.90;;;;;;4942684;28;20475;-91
2023/08/11 05:07:15;;;;;;;10.73;7.95;;;14.90;99.90;;;;;;4960089;28;20046;-92
2023/08/11 05:09:42;;;;;;;10.50;7.70;;;14.90;99.90;;;;;;4944615;28;20166;-92
2023/08/11 05:12:10;;;;;;;20.35;7.90;;;15.00;99.90;;;;;;4944623;28;20045;-92
2023/08/11 05:14:37;;;;;;;13.63;7.80;;;15.00;99.90;;;;;;4975886;28;20109;-92
2023/08/11 05:17:04;;;;;;;11.07;7.90;;;15.00;99.90;;;;;;4944395;28;20404;-91
2023/08/11 05:19:32;;;;;;;11.90;7.70;;;15.10;99.90;;;;;;4975437;28;20070;-92
2023/08/11 05:21:59;;;;;;;12.73;7.60;;;15.10;99.90;;;;;;4959840;28;20034;-91
2023/08/11 05:24:29;;;;;;;12.07;7.40;;;15.10;99.90;;;;;;4960290;28;20049;-91
2023/08/11 05:26:57;;;;;;;11.25;7.28;;;15.20;99.90;;;;;;4960145;28;20476;-90
2023/08/11 05:29:24;;;;;;;11.80;7.22;;;15.20;99.90;;;;;;4944933;28;20587;-92
2023/08/11 05:31:51;;;;;;;12.15;7.63;;;15.30;99.90;;;;;;4976038;28;20531;-90
2023/08/11 05:34:19;;;;;;;10.93;7.38;;;15.30;99.90;;;;;;4944192;28;20205;-92
2023/08/11 05:36:46;;;;;;;15.40;7.15;;;15.30;99.90;;;;;;4959990;28;20046;-92
2023/08/11 05:39:13;;;;;;;20.58;6.82;;;15.40;99.90;;;;;;4960188;28;20046;-92
2023/08/11 05:41:41;;;;;;;10.77;7.03;;;15.40;99.90;;;;;;4975339;28;20042;-91
2023/08/11 05:44:08;;;;;;;16.55;6.75;;;15.50;99.90;;;;;;4959969;28;20038;-91
2023/08/11 05:46:35;;;;;;;11.00;6.28;;;15.60;99.90;;;;;;4944036;28;20503;-91
2023/08/11 05:49:09;;;;;;;10.98;6.57;;;15.60;99.90;;;;;;4968973;28;20061;-92
2023/08/11 05:51:35;;;;;;;11.63;6.50;;;15.70;99.90;;;;;;4975544;28;20129;-91
2023/08/11 05:54:03;;;;;;;16.38;7.53;;;15.70;99.90;;;;;;4959852;28;20082;-92
2023/08/11 05:56:32;;;;;;;9.93;6.68;;;15.80;99.90;;;;;;4959602;28;20047;-89
2023/08/11 05:58:59;;;;;;;12.38;6.07;;;15.80;99.90;;;;;;4975889;28;20039;-92
2023/08/11 06:01:30;;;;;;;9.88;6.13;;;15.90;99.90;;;;;;4961332;28;20387;-92
2023/08/11 06:03:57;;;;;;;9.65;5.70;;;15.90;99.90;;;;;;4975836;28;20101;-91
2023/08/11 06:06:24;;;;;;;10.75;6.03;;;16.00;99.90;;;;;;4962582;28;20043;-92
2023/08/11 06:08:51;;;;;;;11.25;6.18;;;16.10;99.90;;;;;;4963009;28;20218;-91
2023/08/11 06:11:18;;;;;;;9.60;5.43;;;16.10;99.90;;;;;;4934675;29;20079;-92
2023/08/11 06:13:48;;;;;;;8.07;5.38;;;16.20;99.90;;;;;;4956356;29;20511;-92
2023/08/11 06:16:14;;;;;;;7.45;5.13;;;16.30;99.90;;;;;;4944659;29;20050;-92
2023/08/11 06:18:41;;;;;;;9.90;5.70;;;16.30;99.90;;;;;;4959519;29;20039;-92
2023/08/11 06:21:09;;;;;;;9.30;5.90;;;16.40;99.90;;;;;;4944000;29;20101;-92
2023/08/11 06:23:36;;;;;;;10.20;5.40;;;16.50;99.90;;;;;;4928862;29;20036;-92
2023/08/11 06:26:03;;;;;;;9.43;4.88;;;16.60;99.90;;;;;;4944313;29;20062;-91
2023/08/11 06:28:29;;;;;;;10.00;5.03;;;16.60;99.90;;;;;;4928539;29;20090;-91
2023/08/11 06:30:57;;;;;;;8.52;4.43;;;16.80;99.90;;;;;;4928146;29;20039;-91
2023/08/11 06:33:23;;;;;;;8.13;4.63;;;16.80;99.90;;;;;;4959727;29;20039;-91
2023/08/11 06:35:50;;;;;;;9.23;4.88;;;16.90;99.90;;;;;;4943405;29;20412;-92
2023/08/11 06:38:17;;;;;;;9.80;4.82;;;17.00;99.90;;;;;;4928382;29;20074;-91
2023/08/11 06:40:44;;;;;;;11.57;4.32;;;17.10;99.90;;;;;;4943897;29;20039;-92
2023/08/11 06:43:11;;;;;;;6.88;4.50;;;17.20;99.90;;;;;;4944297;29;20448;-91
2023/08/11 06:45:38;;;;;;;9.05;4.25;;;17.30;99.90;;;;;;4959485;29;20074;-91
2023/08/11 06:48:06;;;;;;;7.30;3.92;;;17.40;99.90;;;;;;4959351;29;20051;-92
2023/08/11 06:50:33;;;;;;;7.10;4.10;;;17.40;99.90;;;;;;4927596;29;20115;-91
2023/08/11 06:53:00;;;;;;;7.40;4.05;;;17.50;99.90;;;;;;4943702;29;20142;-93
2023/08/11 06:55:27;;;;;;;7.78;3.90;;;17.60;99.90;;;;;;4943708;29;20051;-93
2023/08/11 06:57:53;;;;;;;12.38;3.83;;;17.70;99.90;;;;;;4958751;29;20087;-92
2023/08/11 07:00:20;;;;;;;6.38;3.50;;;17.80;99.90;;;;;;4943320;29;20049;-91
2023/08/11 07:02:47;;;;;;;8.20;3.78;;;17.90;99.90;;;;;;4942908;29;20047;-89
2023/08/11 07:05:14;;;;;;;6.95;3.42;;;18.00;99.90;;;;;;4943150;29;20042;-91
2023/08/11 07:07:41;;;;;;;7.30;3.90;;;18.10;99.90;;;;;;4927651;29;20070;-92
2023/08/11 07:10:08;;;;;;;5.95;3.35;;;18.20;99.90;;;;;;4959006;29;20047;-92
2023/08/11 07:12:35;;;;;;;6.15;3.70;;;18.30;99.90;;;;;;4942687;29;20134;-92
2023/08/11 07:15:03;;;;;;;7.00;3.35;;;18.40;99.90;;;;;;4958917;29;20079;-92
2023/08/11 07:17:32;;;;;;;5.28;3.40;;;18.50;99.90;;;;;;4942459;29;20051;-90
2023/08/11 07:19:59;;;;;;;6.25;3.40;;;18.70;99.90;;;;;;4958312;29;20047;-93
2023/08/11 07:22:26;;;;;;;8.13;3.05;;;18.70;99.90;;;;;;4943335;29;20035;-93
2023/08/11 07:24:56;;;;;;;12.40;3.97;;;18.90;99.90;;;;;;4942714;29;20044;-93
2023/08/11 07:27:23;;;;;;;6.82;3.33;;;19.00;99.90;;;;;;4958965;29;20039;-92
2023/08/11 07:29:51;;;;;;;8.02;3.25;;;19.10;99.90;;;;;;4943049;29;20060;-93
2023/08/11 07:32:18;;;;;;;5.20;3.30;;;19.20;99.90;;;;;;4943271;29;20105;-93
2023/08/11 07:34:48;;;;;;;5.65;3.08;;;19.20;99.90;;;;;;4958478;29;20079;-92
2023/08/11 07:37:15;;;;;;;5.22;2.88;;;19.40;99.90;;;;;;4943071;29;20047;-91
2023/08/11 07:39:42;;;;;;;5.97;2.97;;;19.40;99.90;;;;;;4958303;29;20043;-92
2023/08/11 07:42:09;;;;;;;6.88;2.85;;;19.60;99.90;;;;;;4958430;29;20093;-92
2023/08/11 07:44:36;;;;;;;5.72;2.85;;;19.70;99.90;;;;;;4958242;29;20039;-93
2023/08/11 07:47:03;;;;;;;5.40;2.83;;;19.80;99.90;;;;;;4958045;29;20043;-92
2023/08/11 07:49:31;;;;;;;5.28;2.80;;;19.90;99.90;;;;;;4973959;29;20043;-89
2023/08/11 07:51:58;;;;;;;5.28;2.58;;;20.00;99.90;;;;;;4957691;29;20095;-92
2023/08/11 07:54:24;;;;;;;4.65;2.53;;;20.10;99.90;;;;;;4958131;29;20088;-92
2023/08/11 07:56:51;;;;;;;4.10;2.40;;;20.20;99.90;;;;;;4958511;29;20836;-93
2023/08/11 07:59:18;;;;;;;5.38;2.60;;;20.30;99.90;;;;;;4958190;29;20035;-92
2023/08/11 08:01:45;;;;;;;5.88;2.67;;;20.40;99.90;;;;;;4942773;29;20043;-92
2023/08/11 08:04:12;;;;;;;6.03;2.42;;;20.50;99.90;;;;;;4942356;29;20488;-89
2023/08/11 08:06:43;;;;;;;5.05;2.40;;;20.60;99.90;;;;;;4942307;29;20050;-92
2023/08/11 08:09:11;;;;;;;5.22;2.80;;;20.60;99.90;;;;;;4957710;29;20118;-92
2023/08/11 08:11:39;;;;;;;5.93;2.42;;;20.70;99.90;;;;;;4958272;29;20058;-91
2023/08/11 08:14:06;;;;;;;5.53;2.50;;;20.80;99.90;;;;;;4941753;29;20440;-92
2023/08/11 08:16:32;;;;;;;5.68;2.90;;;21.00;99.90;;;;;;4958166;29;20035;-85
2023/08/11 08:19:10;;;;;;;4.07;2.50;;;21.00;99.90;;;;;;4958543;29;20053;-93
2023/08/11 08:21:38;;;;;;;7.30;2.63;;;21.20;99.90;;;;;;4943016;29;20047;-93
2023/08/11 08:24:08;;;;;;;5.53;2.60;;;21.30;99.90;;;;;;4942676;29;20078;-93
2023/08/11 08:26:35;;;;;;;6.00;3.17;;;21.40;99.90;;;;;;4941732;29;20526;-94
2023/08/11 08:29:03;;;;;;;5.38;2.40;;;21.60;99.90;;;;;;4940854;29;20043;-92
2023/08/11 08:31:30;;;;;;;6.05;2.58;;;21.60;99.90;;;;;;4942370;29;20082;-94
2023/08/11 08:33:57;;;;;;;9.43;2.90;;;21.80;99.90;;;;;;4957089;29;20062;-89
2023/08/11 08:36:24;;;;;;;4.22;2.72;;;21.80;99.90;;;;;;4973202;29;20043;-89
2023/08/11 08:38:51;;;;;;;6.10;2.70;;;21.90;99.90;;;;;;4956950;29;20504;-89
2023/08/11 08:41:27;;;;;;;5.88;2.80;;;22.00;99.90;;;;;;4956848;29;20074;-90
2023/08/11 08:43:59;;;;;;;6.13;2.60;;;22.10;99.90;;;;;;4956664;29;20047;-89
2023/08/11 08:46:28;;;;;;;5.32;2.90;;;22.20;99.90;;;;;;4956970;29;20042;-91
2023/08/11 08:49:01;;;;;;;4.70;2.67;;;22.30;99.90;;;;;;4956744;29;20043;-91
2023/08/11 08:51:30;;;;;;;7.40;2.70;;;22.40;99.90;;;;;;4957253;29;20051;-92
2023/08/11 08:53:57;;;;;;;5.57;2.85;;;22.50;99.90;;;;;;4957089;29;20047;-92
2023/08/11 08:56:25;;;;;;;4.45;2.70;;;22.60;99.90;;;;;;4957240;29;20053;-93
2023/08/11 08:58:52;;;;;;;7.20;2.80;;;22.60;99.90;;;;;;4957386;29;20058;-93
2023/08/11 09:01:19;;;;;;;7.10;2.70;;;22.70;99.90;;;;;;4925400;29;20039;-92
2023/08/11 09:03:48;;;;;;;6.18;2.83;;;22.80;99.90;;;;;;4956718;29;20137;-92
2023/08/11 09:06:16;;;;;;;8.27;2.70;;;23.00;99.90;;;;;;4941245;29;20134;-93
2023/08/11 09:08:43;;;;;;;6.25;2.78;;;23.00;99.90;;;;;;4925617;29;20063;-92
2023/08/11 09:11:09;;;;;;;7.35;3.15;;;23.10;99.90;;;;;;4956565;29;20083;-92
2023/08/11 09:13:38;;;;;;;4.78;3.05;;;23.20;99.90;;;;;;4956971;29;20137;-93
2023/08/11 09:16:05;;;;;;;7.18;3.20;;;23.20;99.90;;;;;;4956494;29;20049;-92
2023/08/11 09:18:32;;;;;;;7.18;3.40;;;23.30;99.90;;;;;;4956628;29;20078;-92
2023/08/11 09:21:02;;;;;;;8.50;3.60;;;23.30;99.90;;;;;;4956561;29;20456;-89
2023/08/11 09:23:29;;;;;;;5.25;3.30;;;23.40;99.90;;;;;;4957180;29;20086;-92
2023/08/11 09:25:56;;;;;;;6.53;3.22;;;23.50;99.90;;;;;;4941099;29;20481;-93
2023/08/11 09:28:22;;;;;;;11.82;3.38;;;23.50;99.90;;;;;;4940655;29;20044;-92
2023/08/11 09:30:50;;;;;;;7.75;3.20;;;23.60;99.90;;;;;;4956601;29;20086;-92
2023/08/11 09:33:18;;;;;;;5.78;3.47;;;23.70;99.90;;;;;;4956474;29;20047;-93
2023/08/11 09:35:45;;;;;;;5.63;3.50;;;23.70;99.90;;;;;;4941035;29;20051;-92
2023/08/11 09:38:12;;;;;;;6.85;3.35;;;23.90;99.90;;;;;;4940570;29;20051;-92
2023/08/11 09:40:41;;;;;;;10.70;3.40;;;23.90;99.90;;;;;;4940755;29;20043;-92
2023/08/11 09:43:10;;;;;;;7.05;2.92;;;24.10;99.90;;;;;;4956264;29;20050;-92
2023/08/11 09:45:37;;;;;;;7.80;3.40;;;24.20;99.90;;;;;;4956560;29;20481;-92
2023/08/11 09:48:04;;;;;;;5.70;3.08;;;24.20;99.90;;;;;;4940891;29;20507;-91
2023/08/11 09:50:34;;;;;;;5.82;2.88;;;24.40;99.90;;;;;;4942225;29;20083;-93
2023/08/11 09:53:04;;;;;;;6.85;3.60;;;24.50;99.90;;;;;;4956988;29;20400;-92
2023/08/11 09:55:35;;;;;;;7.25;3.03;;;24.60;99.90;;;;;;4956672;29;20043;-93
2023/08/11 09:58:03;;;;;;;7.57;3.38;;;24.50;99.90;;;;;;4956132;29;20139;-92
2023/08/11 10:00:31;;;;;;;6.80;3.60;;;24.60;99.90;;;;;;4955785;29;20047;-92
2023/08/11 10:03:06;;;;;;;8.25;3.38;;;24.60;99.90;;;;;;4940478;29;20126;-91
2023/08/11 10:05:36;;;;;;;8.50;3.10;;;24.60;99.90;;;;;;4956658;29;20050;-89
2023/08/11 10:08:05;;;;;;;6.45;3.17;;;24.70;99.90;;;;;;4956514;29;20078;-90
2023/08/11 10:10:33;;;;;;;6.20;3.00;;;24.80;99.90;;;;;;4957157;29;20039;-90
2023/08/11 10:13:21;;;;;;;5.35;3.20;;;24.90;99.90;;;;;;4941239;29;20043;-90
2023/08/11 10:15:50;;;;;;;7.00;3.17;;;25.00;99.90;;;;;;4941622;29;20062;-90
2023/08/11 10:18:17;;;;;;;7.78;3.20;;;25.10;99.90;;;;;;4956291;29;20043;-90
2023/08/11 10:20:46;;;;;;;6.85;3.50;;;25.20;99.90;;;;;;4940741;29;20039;-90
2023/08/11 10:23:14;;;;;;;5.78;3.17;;;25.30;99.90;;;;;;4956090;29;20047;-90
2023/08/11 10:25:41;;;;;;;6.13;3.30;;;25.40;99.90;;;;;;4940357;29;20039;-91
2023/08/11 10:28:11;;;;;;;5.82;2.65;;;25.40;99.90;;;;;;4956243;29;20408;-90
2023/08/11 10:30:38;;;;;;;8.38;3.28;;;25.50;99.90;;;;;;4956458;29;20468;-91
2023/08/11 10:33:06;;;;;;;6.32;3.20;;;25.50;99.90;;;;;;4940394;29;20500;-90
2023/08/11 10:35:52;;;;;;;7.32;3.35;;;25.60;99.90;;;;;;4955727;29;20091;-91
2023/08/11 10:38:32;;;;;;;9.32;2.70;;;25.60;99.90;;;;;;4939386;29;20138;-91
2023/08/11 10:41:16;;;;;;;5.80;2.90;;;25.60;99.90;;;;;;4940426;29;20047;-89
2023/08/11 10:43:47;;;;;;;6.60;2.45;;;25.60;99.90;;;;;;4955997;29;20062;-90
2023/08/11 10:46:26;;;;;;;5.72;2.65;;;25.70;99.90;;;;;;4956070;29;20043;-90
2023/08/11 10:49:24;;;;;;;6.90;2.83;;;25.90;99.90;;;;;;4956806;29;20043;-90
2023/08/11 10:51:53;;;;;;;6.43;2.70;;;26.10;99.90;;;;;;4942957;29;20043;-90
2023/08/11 10:54:25;;;;;;;4.72;2.40;;;26.10;99.90;;;;;;4959713;29;20043;-91
2023/08/11 10:56:52;;;;;;;5.85;2.67;;;26.10;99.90;;;;;;4949897;29;20082;-90
2023/08/11 10:59:23;;;;;;;5.55;2.78;;;26.20;99.90;;;;;;4959106;29;20046;-90
2023/08/11 11:01:53;;;;;;;5.32;2.38;;;26.20;99.90;;;;;;4959869;29;20066;-90
2023/08/11 11:04:22;;;;;;;5.68;2.70;;;26.30;99.90;;;;;;4958861;29;20503;-90
2023/08/11 11:06:59;;;;;;;6.85;2.50;;;26.30;99.90;;;;;;4959748;29;20031;-90
2023/08/11 11:09:27;;;;;;;4.28;2.42;;;26.30;99.90;;;;;;4956829;29;20134;-91
2023/08/11 11:11:55;;;;;;;9.75;2.40;;;26.30;99.90;;;;;;4959433;29;20047;-94
2023/08/11 11:14:24;;;;;;;5.53;2.60;;;26.40;99.90;;;;;;4960495;29;20053;-92
2023/08/11 11:16:54;;;;;;;5.97;2.35;;;26.40;99.90;;;;;;4960403;29;20078;-92
2023/08/11 11:19:23;;;;;;;7.38;2.50;;;26.60;99.90;;;;;;4958732;29;20519;-92
2023/08/11 11:21:50;;;;;;;6.25;2.72;;;26.50;99.90;;;;;;4958876;29;20047;-86
2023/08/11 11:24:18;;;;;;;8.93;2.30;;;26.60;99.90;;;;;;4959011;29;20043;-88
2023/08/11 11:26:46;;;;;;;7.38;2.50;;;26.60;99.90;;;;;;4959435;29;20135;-93
2023/08/11 11:29:14;;;;;;;6.55;2.42;;;26.40;99.90;;;;;;4959567;29;20056;-90
2023/08/11 11:31:41;;;;;;;4.93;2.30;;;26.40;99.90;;;;;;4959074;29;20047;-89
2023/08/11 11:34:24;;;;;;;4.72;2.40;;;26.40;99.90;;;;;;4958898;29;20483;-92
2023/08/11 11:36:57;;;;;;;3.70;2.10;;;26.50;99.90;;;;;;4975387;29;20040;-90
2023/08/11 11:39:25;;;;;;;4.50;2.30;;;26.60;99.90;;;;;;4958797;29;20043;-90
2023/08/11 11:41:52;;;;;;;5.80;2.15;;;26.70;99.90;;;;;;4958264;29;20083;-90
2023/08/11 11:44:20;;;;;;;5.43;2.50;;;26.80;99.90;;;;;;4958642;29;20444;-90
2023/08/11 11:46:47;;;;;;;5.75;2.17;;;26.90;99.90;;;;;;4958897;29;20039;-91
2023/08/11 11:49:15;;;;;;;5.25;2.20;;;27.00;99.90;;;;;;4958474;29;20420;-90
2023/08/11 11:51:42;;;;;;;5.50;2.10;;;27.10;99.90;;;;;;4959082;29;20066;-90
2023/08/11 11:54:09;;;;;;;6.65;2.63;;;27.20;99.90;;;;;;4943255;29;20039;-91
2023/08/11 11:56:36;;;;;;;3.80;2.20;;;27.20;99.90;;;;;;4942622;29;20097;-91
2023/08/11 11:59:03;;;;;;;4.30;2.25;;;27.10;99.90;;;;;;4943017;29;20050;-91
2023/08/11 12:01:30;;;;;;;7.95;2.10;;;27.00;99.90;;;;;;4953368;29;20035;-91
2023/08/11 12:03:58;;;;;;;5.95;2.38;;;26.90;99.90;;;;;;4957937;29;20043;-91
2023/08/11 12:06:27;;;;;;;8.18;2.40;;;26.90;99.90;;;;;;4957862;29;20043;-91
2023/08/11 12:09:13;;;;;;;5.63;2.00;;;27.00;99.90;;;;;;4958865;29;20142;-90
2023/08/11 12:11:39;;;;;;;5.63;2.08;;;27.00;99.90;;;;;;4958181;29;20110;-91
2023/08/11 12:14:07;;;;;;;4.57;2.08;;;27.10;99.90;;;;;;4942814;29;20043;-91
2023/08/11 12:16:35;;;;;;;7.72;2.20;;;27.20;99.90;;;;;;4973792;29;20043;-91
2023/08/11 12:19:03;;;;;;;4.40;2.15;;;27.40;99.90;;;;;;4942384;29;20079;-90
2023/08/11 12:21:31;;;;;;;4.88;2.15;;;27.40;99.90;;;;;;4957682;29;20130;-91
2023/08/11 12:23:58;;;;;;;4.68;2.03;;;27.50;99.90;;;;;;4958031;29;20047;-91
2023/08/11 12:26:26;;;;;;;5.25;2.25;;;27.60;99.90;;;;;;4942436;29;20457;-91
2023/08/11 12:28:52;;;;;;;3.78;1.80;;;27.90;99.90;;;;;;4958254;29;20047;-91
2023/08/11 12:31:19;;;;;;;4.00;1.88;;;27.80;99.90;;;;;;4942263;29;20046;-91
2023/08/11 12:33:46;;;;;;;3.95;1.88;;;27.80;99.90;;;;;;4958136;29;20082;-91
2023/08/11 12:36:15;;;;;;;7.05;2.00;;;27.80;99.90;;;;;;4957999;29;20035;-89
2023/08/11 12:38:41;;;;;;;4.38;2.10;;;27.90;99.90;;;;;;4943475;28;20057;-88
2023/08/11 12:41:08;;;;;;;4.80;2.00;;;27.70;99.90;;;;;;4959644;28;20038;-87
2023/08/11 12:43:35;;;;;;;8.27;1.95;;;27.70;99.90;;;;;;4959845;28;20065;-88
2023/08/11 12:46:02;;;;;;;3.72;1.77;;;27.70;99.90;;;;;;4936376;29;20065;-89
2023/08/11 12:48:29;;;;;;;4.50;1.80;;;27.60;99.90;;;;;;4941405;29;20043;-89
2023/08/11 12:50:55;;;;;;;5.00;2.10;;;27.40;99.90;;;;;;4956763;29;20809;-90